sensor_id;sensor_type;location;lat;lon;timestamp;P1;durP1;ratioP1;P2;durP2;ratioP2
19358;SDS011;9815;52.334;20.890;2022-08-19T00:01:52;19.60;;;11.52;;
19358;SDS011;9815;52.334;20.890;2022-08-19T00:04:25;19.13;;;12.02;;
19358;SDS011;9815;52.334;20.890;2022-08-19T00:06:55;17.52;;;11.07;;
19358;SDS011;9815;52.334;20.890;2022-08-19T00:09:23;16.03;;;11.50;;
19358;SDS011;9815;52.334;20.890;2022-08-19T00:11:52;18.10;;;11.57;;
19358;SDS011;9815;52.334;20.890;2022-08-19T00:14:23;14.63;;;10.80;;
19358;SDS011;9815;52.334;20.890;2022-08-19T00:16:54;20.50;;;11.70;;
19358;SDS011;9815;52.334;20.890;2022-08-19T00:19:23;18.60;;;10.50;;
19358;SDS011;9815;52.334;20.890;2022-08-19T00:21:51;17.20;;;11.27;;
19358;SDS011;9815;52.334;20.890;2022-08-19T00:24:21;18.67;;;11.48;;
19358;SDS011;9815;52.334;20.890;2022-08-19T00:26:50;16.40;;;11.37;;
19358;SDS011;9815;52.334;20.890;2022-08-19T00:29:19;16.23;;;11.80;;
19358;SDS011;9815;52.334;20.890;2022-08-19T00:31:48;18.20;;;11.15;;
19358;SDS011;9815;52.334;20.890;2022-08-19T00:34:21;17.52;;;10.98;;
19358;SDS011;9815;52.334;20.890;2022-08-19T00:36:50;16.33;;;11.10;;
19358;SDS011;9815;52.334;20.890;2022-08-19T00:39:19;19.08;;;11.30;;
19358;SDS011;9815;52.334;20.890;2022-08-19T00:41:48;18.88;;;11.50;;
19358;SDS011;9815;52.334;20.890;2022-08-19T00:44:18;19.40;;;12.43;;
19358;SDS011;9815;52.334;20.890;2022-08-19T00:46:53;21.23;;;11.93;;
19358;SDS011;9815;52.334;20.890;2022-08-19T00:49:27;18.20;;;11.50;;
19358;SDS011;9815;52.334;20.890;2022-08-19T00:51:59;16.73;;;11.50;;
19358;SDS011;9815;52.334;20.890;2022-08-19T00:54:31;19.00;;;11.20;;
19358;SDS011;9815;52.334;20.890;2022-08-19T00:57:00;17.48;;;11.10;;
19358;SDS011;9815;52.334;20.890;2022-08-19T00:59:32;16.65;;;11.77;;
19358;SDS011;9815;52.334;20.890;2022-08-19T01:02:24;15.03;;;11.20;;
19358;SDS011;9815;52.334;20.890;2022-08-19T01:04:55;16.60;;;11.53;;
19358;SDS011;9815;52.334;20.890;2022-08-19T01:07:23;23.23;;;12.27;;
19358;SDS011;9815;52.334;20.890;2022-08-19T01:09:52;18.17;;;12.02;;
19358;SDS011;9815;52.334;20.890;2022-08-19T01:12:21;17.67;;;11.40;;
19358;SDS011;9815;52.334;20.890;2022-08-19T01:14:50;17.10;;;11.73;;
19358;SDS011;9815;52.334;20.890;2022-08-19T01:17:19;16.20;;;11.10;;
19358;SDS011;9815;52.334;20.890;2022-08-19T01:19:48;18.48;;;11.43;;
19358;SDS011;9815;52.334;20.890;2022-08-19T01:22:19;16.70;;;11.50;;
19358;SDS011;9815;52.334;20.890;2022-08-19T01:24:59;17.40;;;11.27;;
19358;SDS011;9815;52.334;20.890;2022-08-19T01:27:36;16.10;;;11.17;;
19358;SDS011;9815;52.334;20.890;2022-08-19T01:30:11;16.00;;;11.97;;
19358;SDS011;9815;52.334;20.890;2022-08-19T01:32:41;15.93;;;10.47;;
19358;SDS011;9815;52.334;20.890;2022-08-19T01:35:10;16.43;;;10.97;;
19358;SDS011;9815;52.334;20.890;2022-08-19T01:37:45;14.83;;;10.93;;
19358;SDS011;9815;52.334;20.890;2022-08-19T01:40:15;16.13;;;10.77;;
19358;SDS011;9815;52.334;20.890;2022-08-19T01:42:43;14.80;;;10.93;;
19358;SDS011;9815;52.334;20.890;2022-08-19T01:45:12;18.27;;;11.37;;
19358;SDS011;9815;52.334;20.890;2022-08-19T01:47:40;17.10;;;11.17;;
19358;SDS011;9815;52.334;20.890;2022-08-19T01:50:18;21.53;;;11.97;;
19358;SDS011;9815;52.334;20.890;2022-08-19T01:52:48;18.47;;;11.60;;
19358;SDS011;9815;52.334;20.890;2022-08-19T01:55:32;17.20;;;11.10;;
19358;SDS011;9815;52.334;20.890;2022-08-19T01:58:08;16.77;;;10.83;;
19358;SDS011;9815;52.334;20.890;2022-08-19T02:00:40;19.07;;;12.60;;
19358;SDS011;9815;52.334;20.890;2022-08-19T02:03:09;18.67;;;12.00;;
19358;SDS011;9815;52.334;20.890;2022-08-19T02:05:38;22.70;;;12.07;;
19358;SDS011;9815;52.334;20.890;2022-08-19T02:08:07;24.20;;;12.50;;
19358;SDS011;9815;52.334;20.890;2022-08-19T02:10:38;18.97;;;11.63;;
19358;SDS011;9815;52.334;20.890;2022-08-19T02:13:07;19.80;;;12.53;;
19358;SDS011;9815;52.334;20.890;2022-08-19T02:15:36;22.43;;;12.10;;
19358;SDS011;9815;52.334;20.890;2022-08-19T02:18:04;17.63;;;11.80;;
19358;SDS011;9815;52.334;20.890;2022-08-19T02:20:34;20.93;;;12.27;;
19358;SDS011;9815;52.334;20.890;2022-08-19T02:23:03;19.50;;;12.00;;
19358;SDS011;9815;52.334;20.890;2022-08-19T02:25:41;20.43;;;11.87;;
19358;SDS011;9815;52.334;20.890;2022-08-19T02:28:10;16.00;;;11.80;;
19358;SDS011;9815;52.334;20.890;2022-08-19T02:30:44;19.67;;;11.87;;
19358;SDS011;9815;52.334;20.890;2022-08-19T02:33:13;17.03;;;12.03;;
19358;SDS011;9815;52.334;20.890;2022-08-19T02:35:42;19.00;;;12.23;;
19358;SDS011;9815;52.334;20.890;2022-08-19T02:38:10;18.23;;;12.57;;
19358;SDS011;9815;52.334;20.890;2022-08-19T02:40:56;22.20;;;12.93;;
19358;SDS011;9815;52.334;20.890;2022-08-19T02:43:26;22.77;;;11.83;;
19358;SDS011;9815;52.334;20.890;2022-08-19T02:46:00;21.83;;;12.60;;
19358;SDS011;9815;52.334;20.890;2022-08-19T02:48:28;19.83;;;12.43;;
19358;SDS011;9815;52.334;20.890;2022-08-19T02:50:59;22.73;;;12.93;;
19358;SDS011;9815;52.334;20.890;2022-08-19T02:53:27;22.27;;;13.17;;
19358;SDS011;9815;52.334;20.890;2022-08-19T02:55:57;19.17;;;12.00;;
19358;SDS011;9815;52.334;20.890;2022-08-19T02:58:25;20.40;;;12.40;;
19358;SDS011;9815;52.334;20.890;2022-08-19T03:00:54;20.97;;;13.23;;
19358;SDS011;9815;52.334;20.890;2022-08-19T03:03:24;18.77;;;12.63;;
19358;SDS011;9815;52.334;20.890;2022-08-19T03:06:02;20.20;;;12.33;;
19358;SDS011;9815;52.334;20.890;2022-08-19T03:08:36;25.33;;;13.30;;
19358;SDS011;9815;52.334;20.890;2022-08-19T03:11:11;20.30;;;13.53;;
19358;SDS011;9815;52.334;20.890;2022-08-19T03:13:40;19.23;;;13.47;;
19358;SDS011;9815;52.334;20.890;2022-08-19T03:16:10;20.13;;;12.80;;
19358;SDS011;9815;52.334;20.890;2022-08-19T03:18:40;21.17;;;13.70;;
19358;SDS011;9815;52.334;20.890;2022-08-19T03:21:09;21.20;;;12.80;;
19358;SDS011;9815;52.334;20.890;2022-08-19T03:23:42;22.50;;;12.70;;
19358;SDS011;9815;52.334;20.890;2022-08-19T03:26:12;21.17;;;12.60;;
19358;SDS011;9815;52.334;20.890;2022-08-19T03:28:43;22.73;;;13.53;;
19358;SDS011;9815;52.334;20.890;2022-08-19T03:31:18;21.33;;;13.20;;
19358;SDS011;9815;52.334;20.890;2022-08-19T03:34:07;19.47;;;12.33;;
19358;SDS011;9815;52.334;20.890;2022-08-19T03:36:38;22.43;;;13.23;;
19358;SDS011;9815;52.334;20.890;2022-08-19T03:39:07;22.90;;;13.00;;
19358;SDS011;9815;52.334;20.890;2022-08-19T03:41:40;19.17;;;12.77;;
19358;SDS011;9815;52.334;20.890;2022-08-19T03:44:12;21.13;;;13.40;;
19358;SDS011;9815;52.334;20.890;2022-08-19T03:46:44;18.97;;;13.00;;
19358;SDS011;9815;52.334;20.890;2022-08-19T03:49:13;19.93;;;11.93;;
19358;SDS011;9815;52.334;20.890;2022-08-19T03:51:44;19.97;;;13.20;;
19358;SDS011;9815;52.334;20.890;2022-08-19T03:54:14;23.97;;;14.03;;
19358;SDS011;9815;52.334;20.890;2022-08-19T03:56:46;23.80;;;13.20;;
19358;SDS011;9815;52.334;20.890;2022-08-19T03:59:17;21.53;;;13.30;;
19358;SDS011;9815;52.334;20.890;2022-08-19T04:01:48;19.23;;;13.07;;
19358;SDS011;9815;52.334;20.890;2022-08-19T04:04:16;24.30;;;13.37;;
19358;SDS011;9815;52.334;20.890;2022-08-19T04:06:45;20.77;;;13.67;;
19358;SDS011;9815;52.334;20.890;2022-08-19T04:09:14;23.00;;;13.70;;
19358;SDS011;9815;52.334;20.890;2022-08-19T04:11:44;21.27;;;13.07;;
19358;SDS011;9815;52.334;20.890;2022-08-19T04:14:16;23.37;;;13.43;;
19358;SDS011;9815;52.334;20.890;2022-08-19T04:16:47;22.07;;;13.93;;
19358;SDS011;9815;52.334;20.890;2022-08-19T04:19:17;20.53;;;13.20;;
19358;SDS011;9815;52.334;20.890;2022-08-19T04:21:47;25.37;;;14.67;;
19358;SDS011;9815;52.334;20.890;2022-08-19T04:24:17;18.47;;;13.67;;
19358;SDS011;9815;52.334;20.890;2022-08-19T04:26:48;20.93;;;13.20;;
19358;SDS011;9815;52.334;20.890;2022-08-19T04:29:17;19.63;;;13.67;;
19358;SDS011;9815;52.334;20.890;2022-08-19T04:31:49;22.77;;;13.73;;
19358;SDS011;9815;52.334;20.890;2022-08-19T04:34:19;22.73;;;13.37;;
19358;SDS011;9815;52.334;20.890;2022-08-19T04:36:50;21.03;;;13.50;;
19358;SDS011;9815;52.334;20.890;2022-08-19T04:39:20;21.57;;;13.53;;
19358;SDS011;9815;52.334;20.890;2022-08-19T04:41:51;24.53;;;13.57;;
19358;SDS011;9815;52.334;20.890;2022-08-19T04:44:36;20.53;;;13.73;;
19358;SDS011;9815;52.334;20.890;2022-08-19T04:47:11;23.33;;;14.23;;
19358;SDS011;9815;52.334;20.890;2022-08-19T04:49:40;20.37;;;13.33;;
19358;SDS011;9815;52.334;20.890;2022-08-19T04:52:08;24.07;;;12.97;;
19358;SDS011;9815;52.334;20.890;2022-08-19T04:54:37;18.60;;;13.13;;
19358;SDS011;9815;52.334;20.890;2022-08-19T04:57:07;21.87;;;12.97;;
19358;SDS011;9815;52.334;20.890;2022-08-19T04:59:37;21.67;;;13.47;;
19358;SDS011;9815;52.334;20.890;2022-08-19T05:02:07;21.50;;;12.67;;
19358;SDS011;9815;52.334;20.890;2022-08-19T05:04:36;20.27;;;12.07;;
19358;SDS011;9815;52.334;20.890;2022-08-19T05:07:06;21.50;;;12.53;;
19358;SDS011;9815;52.334;20.890;2022-08-19T05:09:35;27.30;;;12.63;;
19358;SDS011;9815;52.334;20.890;2022-08-19T05:12:25;17.92;;;12.15;;
19358;SDS011;9815;52.334;20.890;2022-08-19T05:14:55;20.38;;;12.27;;
19358;SDS011;9815;52.334;20.890;2022-08-19T05:17:24;18.97;;;11.83;;
19358;SDS011;9815;52.334;20.890;2022-08-19T05:19:58;21.20;;;12.47;;
19358;SDS011;9815;52.334;20.890;2022-08-19T05:22:45;25.60;;;12.82;;
19358;SDS011;9815;52.334;20.890;2022-08-19T05:25:17;26.67;;;12.05;;
19358;SDS011;9815;52.334;20.890;2022-08-19T05:27:48;16.55;;;11.00;;
19358;SDS011;9815;52.334;20.890;2022-08-19T05:30:17;21.10;;;12.37;;
19358;SDS011;9815;52.334;20.890;2022-08-19T05:33:05;18.30;;;11.90;;
19358;SDS011;9815;52.334;20.890;2022-08-19T05:35:35;22.27;;;11.82;;
19358;SDS011;9815;52.334;20.890;2022-08-19T05:38:04;21.77;;;11.10;;
19358;SDS011;9815;52.334;20.890;2022-08-19T05:40:34;18.92;;;10.73;;
19358;SDS011;9815;52.334;20.890;2022-08-19T05:43:05;22.65;;;11.10;;
19358;SDS011;9815;52.334;20.890;2022-08-19T05:45:39;17.58;;;9.95;;
19358;SDS011;9815;52.334;20.890;2022-08-19T05:48:08;21.10;;;11.25;;
19358;SDS011;9815;52.334;20.890;2022-08-19T05:50:37;19.95;;;10.80;;
19358;SDS011;9815;52.334;20.890;2022-08-19T05:53:06;21.92;;;10.27;;
19358;SDS011;9815;52.334;20.890;2022-08-19T05:55:36;17.63;;;10.60;;
19358;SDS011;9815;52.334;20.890;2022-08-19T05:58:07;17.08;;;10.00;;
19358;SDS011;9815;52.334;20.890;2022-08-19T06:00:36;17.35;;;9.90;;
19358;SDS011;9815;52.334;20.890;2022-08-19T06:03:06;19.45;;;10.15;;
19358;SDS011;9815;52.334;20.890;2022-08-19T06:05:39;21.27;;;10.65;;
19358;SDS011;9815;52.334;20.890;2022-08-19T06:08:18;17.10;;;9.82;;
19358;SDS011;9815;52.334;20.890;2022-08-19T06:11:11;19.70;;;9.40;;
19358;SDS011;9815;52.334;20.890;2022-08-19T06:13:43;17.88;;;9.32;;
19358;SDS011;9815;52.334;20.890;2022-08-19T06:16:13;15.60;;;9.20;;
19358;SDS011;9815;52.334;20.890;2022-08-19T06:18:45;18.60;;;9.27;;
19358;SDS011;9815;52.334;20.890;2022-08-19T06:21:14;21.30;;;9.35;;
19358;SDS011;9815;52.334;20.890;2022-08-19T06:23:42;21.75;;;8.95;;
19358;SDS011;9815;52.334;20.890;2022-08-19T06:26:11;14.65;;;8.27;;
19358;SDS011;9815;52.334;20.890;2022-08-19T06:28:39;15.40;;;8.30;;
19358;SDS011;9815;52.334;20.890;2022-08-19T06:31:10;12.23;;;7.95;;
19358;SDS011;9815;52.334;20.890;2022-08-19T06:33:40;12.60;;;7.70;;
19358;SDS011;9815;52.334;20.890;2022-08-19T06:38:44;20.40;;;7.78;;
19358;SDS011;9815;52.334;20.890;2022-08-19T06:41:13;11.70;;;7.60;;
19358;SDS011;9815;52.334;20.890;2022-08-19T06:43:41;15.48;;;7.35;;
19358;SDS011;9815;52.334;20.890;2022-08-19T06:46:13;10.95;;;7.57;;
19358;SDS011;9815;52.334;20.890;2022-08-19T06:48:42;15.18;;;7.70;;
19358;SDS011;9815;52.334;20.890;2022-08-19T06:51:11;13.43;;;7.57;;
19358;SDS011;9815;52.334;20.890;2022-08-19T06:53:44;11.38;;;7.10;;
19358;SDS011;9815;52.334;20.890;2022-08-19T06:56:14;12.98;;;7.40;;
19358;SDS011;9815;52.334;20.890;2022-08-19T06:58:43;11.77;;;6.75;;
19358;SDS011;9815;52.334;20.890;2022-08-19T07:01:14;11.95;;;7.15;;
19358;SDS011;9815;52.334;20.890;2022-08-19T07:03:42;13.25;;;6.68;;
19358;SDS011;9815;52.334;20.890;2022-08-19T07:06:12;12.43;;;7.05;;
19358;SDS011;9815;52.334;20.890;2022-08-19T07:09:07;12.43;;;6.93;;
19358;SDS011;9815;52.334;20.890;2022-08-19T07:11:37;12.52;;;7.75;;
19358;SDS011;9815;52.334;20.890;2022-08-19T07:14:09;14.77;;;8.00;;
19358;SDS011;9815;52.334;20.890;2022-08-19T07:16:46;13.77;;;7.28;;
19358;SDS011;9815;52.334;20.890;2022-08-19T07:19:17;10.50;;;6.68;;
19358;SDS011;9815;52.334;20.890;2022-08-19T07:21:46;9.77;;;6.97;;
19358;SDS011;9815;52.334;20.890;2022-08-19T07:24:17;11.98;;;7.68;;
19358;SDS011;9815;52.334;20.890;2022-08-19T07:26:47;11.68;;;7.47;;
19358;SDS011;9815;52.334;20.890;2022-08-19T07:29:18;9.95;;;7.65;;
19358;SDS011;9815;52.334;20.890;2022-08-19T07:31:55;16.85;;;7.82;;
19358;SDS011;9815;52.334;20.890;2022-08-19T07:34:26;12.55;;;6.82;;
19358;SDS011;9815;52.334;20.890;2022-08-19T07:36:56;10.27;;;6.60;;
19358;SDS011;9815;52.334;20.890;2022-08-19T07:39:26;11.63;;;7.22;;
19358;SDS011;9815;52.334;20.890;2022-08-19T07:41:57;13.45;;;6.35;;
19358;SDS011;9815;52.334;20.890;2022-08-19T07:44:27;12.05;;;6.47;;
19358;SDS011;9815;52.334;20.890;2022-08-19T07:46:57;11.88;;;6.38;;
19358;SDS011;9815;52.334;20.890;2022-08-19T07:49:26;10.27;;;6.72;;
19358;SDS011;9815;52.334;20.890;2022-08-19T07:51:56;11.75;;;6.40;;
19358;SDS011;9815;52.334;20.890;2022-08-19T07:54:28;10.98;;;6.20;;
19358;SDS011;9815;52.334;20.890;2022-08-19T07:56:58;9.75;;;6.38;;
19358;SDS011;9815;52.334;20.890;2022-08-19T07:59:27;11.93;;;6.15;;
19358;SDS011;9815;52.334;20.890;2022-08-19T08:01:58;10.25;;;6.45;;
19358;SDS011;9815;52.334;20.890;2022-08-19T08:04:27;12.50;;;6.55;;
19358;SDS011;9815;52.334;20.890;2022-08-19T08:07:13;10.98;;;6.68;;
19358;SDS011;9815;52.334;20.890;2022-08-19T08:10:00;12.68;;;6.53;;
19358;SDS011;9815;52.334;20.890;2022-08-19T08:12:30;14.27;;;6.82;;
19358;SDS011;9815;52.334;20.890;2022-08-19T08:15:03;13.52;;;6.55;;
19358;SDS011;9815;52.334;20.890;2022-08-19T08:17:39;12.13;;;6.82;;
19358;SDS011;9815;52.334;20.890;2022-08-19T08:20:17;13.15;;;6.03;;
19358;SDS011;9815;52.334;20.890;2022-08-19T08:22:46;12.07;;;6.72;;
19358;SDS011;9815;52.334;20.890;2022-08-19T08:25:33;8.75;;;6.30;;
19358;SDS011;9815;52.334;20.890;2022-08-19T08:28:04;9.73;;;6.28;;
19358;SDS011;9815;52.334;20.890;2022-08-19T08:30:36;10.82;;;7.03;;
19358;SDS011;9815;52.334;20.890;2022-08-19T08:33:12;11.48;;;7.50;;
19358;SDS011;9815;52.334;20.890;2022-08-19T08:35:41;11.85;;;6.53;;
19358;SDS011;9815;52.334;20.890;2022-08-19T08:38:12;10.82;;;6.90;;
19358;SDS011;9815;52.334;20.890;2022-08-19T08:40:42;15.95;;;6.80;;
19358;SDS011;9815;52.334;20.890;2022-08-19T08:43:19;9.98;;;6.38;;
19358;SDS011;9815;52.334;20.890;2022-08-19T08:45:59;13.30;;;7.10;;
19358;SDS011;9815;52.334;20.890;2022-08-19T08:48:34;12.68;;;8.45;;
19358;SDS011;9815;52.334;20.890;2022-08-19T08:51:07;12.07;;;6.72;;
19358;SDS011;9815;52.334;20.890;2022-08-19T08:53:45;11.30;;;6.97;;
19358;SDS011;9815;52.334;20.890;2022-08-19T08:56:21;11.73;;;7.18;;
19358;SDS011;9815;52.334;20.890;2022-08-19T08:58:51;12.00;;;6.68;;
19358;SDS011;9815;52.334;20.890;2022-08-19T09:01:25;9.90;;;6.13;;
19358;SDS011;9815;52.334;20.890;2022-08-19T09:03:57;12.50;;;6.15;;
19358;SDS011;9815;52.334;20.890;2022-08-19T09:06:31;12.63;;;6.20;;
19358;SDS011;9815;52.334;20.890;2022-08-19T09:09:10;17.40;;;6.78;;
19358;SDS011;9815;52.334;20.890;2022-08-19T09:11:46;11.82;;;6.22;;
19358;SDS011;9815;52.334;20.890;2022-08-19T09:14:34;10.07;;;6.85;;
19358;SDS011;9815;52.334;20.890;2022-08-19T09:17:17;10.77;;;6.30;;
19358;SDS011;9815;52.334;20.890;2022-08-19T09:19:59;16.17;;;6.38;;
19358;SDS011;9815;52.334;20.890;2022-08-19T09:22:35;8.88;;;6.35;;
19358;SDS011;9815;52.334;20.890;2022-08-19T09:25:05;14.20;;;6.38;;
19358;SDS011;9815;52.334;20.890;2022-08-19T09:27:35;11.13;;;6.20;;
19358;SDS011;9815;52.334;20.890;2022-08-19T09:30:10;10.32;;;6.38;;
19358;SDS011;9815;52.334;20.890;2022-08-19T09:32:41;13.55;;;6.38;;
19358;SDS011;9815;52.334;20.890;2022-08-19T09:35:12;12.45;;;6.53;;
19358;SDS011;9815;52.334;20.890;2022-08-19T09:37:41;14.18;;;6.43;;
19358;SDS011;9815;52.334;20.890;2022-08-19T09:40:11;13.25;;;6.30;;
19358;SDS011;9815;52.334;20.890;2022-08-19T09:42:41;16.83;;;6.70;;
19358;SDS011;9815;52.334;20.890;2022-08-19T09:45:16;11.13;;;6.40;;
19358;SDS011;9815;52.334;20.890;2022-08-19T09:47:48;10.85;;;6.30;;
19358;SDS011;9815;52.334;20.890;2022-08-19T09:50:21;10.52;;;6.55;;
19358;SDS011;9815;52.334;20.890;2022-08-19T09:52:51;13.63;;;6.68;;
19358;SDS011;9815;52.334;20.890;2022-08-19T09:55:23;9.82;;;6.32;;
19358;SDS011;9815;52.334;20.890;2022-08-19T09:57:57;8.52;;;5.95;;
19358;SDS011;9815;52.334;20.890;2022-08-19T10:00:27;10.73;;;5.95;;
19358;SDS011;9815;52.334;20.890;2022-08-19T10:02:56;14.45;;;6.45;;
19358;SDS011;9815;52.334;20.890;2022-08-19T10:05:27;13.70;;;5.78;;
19358;SDS011;9815;52.334;20.890;2022-08-19T10:08:14;12.25;;;5.75;;
19358;SDS011;9815;52.334;20.890;2022-08-19T10:10:46;9.35;;;4.90;;
19358;SDS011;9815;52.334;20.890;2022-08-19T10:13:15;8.48;;;4.85;;
19358;SDS011;9815;52.334;20.890;2022-08-19T10:15:48;9.07;;;4.80;;
19358;SDS011;9815;52.334;20.890;2022-08-19T10:18:18;8.38;;;5.03;;
19358;SDS011;9815;52.334;20.890;2022-08-19T10:20:50;14.77;;;4.80;;
19358;SDS011;9815;52.334;20.890;2022-08-19T10:23:20;7.88;;;5.32;;
19358;SDS011;9815;52.334;20.890;2022-08-19T10:25:48;8.77;;;5.20;;
19358;SDS011;9815;52.334;20.890;2022-08-19T10:28:19;12.02;;;4.80;;
19358;SDS011;9815;52.334;20.890;2022-08-19T10:30:49;8.00;;;4.93;;
19358;SDS011;9815;52.334;20.890;2022-08-19T10:33:18;8.43;;;4.88;;
19358;SDS011;9815;52.334;20.890;2022-08-19T10:36:08;8.82;;;4.72;;
19358;SDS011;9815;52.334;20.890;2022-08-19T10:38:44;7.88;;;4.50;;
19358;SDS011;9815;52.334;20.890;2022-08-19T10:41:22;7.03;;;5.25;;
19358;SDS011;9815;52.334;20.890;2022-08-19T10:43:53;7.47;;;4.82;;
19358;SDS011;9815;52.334;20.890;2022-08-19T10:46:29;12.93;;;5.05;;
19358;SDS011;9815;52.334;20.890;2022-08-19T10:48:59;12.20;;;5.88;;
19358;SDS011;9815;52.334;20.890;2022-08-19T10:51:29;8.48;;;4.60;;
19358;SDS011;9815;52.334;20.890;2022-08-19T10:54:16;8.85;;;4.82;;
19358;SDS011;9815;52.334;20.890;2022-08-19T10:56:58;7.55;;;4.63;;
19358;SDS011;9815;52.334;20.890;2022-08-19T10:59:26;9.25;;;4.50;;
19358;SDS011;9815;52.334;20.890;2022-08-19T11:02:02;19.90;;;5.43;;
19358;SDS011;9815;52.334;20.890;2022-08-19T11:04:32;6.63;;;4.68;;
19358;SDS011;9815;52.334;20.890;2022-08-19T11:07:02;8.20;;;5.07;;
19358;SDS011;9815;52.334;20.890;2022-08-19T11:09:36;8.02;;;4.88;;
19358;SDS011;9815;52.334;20.890;2022-08-19T11:12:06;11.63;;;4.97;;
19358;SDS011;9815;52.334;20.890;2022-08-19T11:14:36;9.38;;;4.68;;
19358;SDS011;9815;52.334;20.890;2022-08-19T11:17:05;10.13;;;4.80;;
19358;SDS011;9815;52.334;20.890;2022-08-19T11:19:34;8.40;;;5.38;;
19358;SDS011;9815;52.334;20.890;2022-08-19T11:22:04;10.38;;;5.15;;
19358;SDS011;9815;52.334;20.890;2022-08-19T11:24:35;11.40;;;4.55;;
19358;SDS011;9815;52.334;20.890;2022-08-19T11:27:05;10.73;;;4.57;;
19358;SDS011;9815;52.334;20.890;2022-08-19T11:29:37;14.30;;;4.72;;
19358;SDS011;9815;52.334;20.890;2022-08-19T11:32:06;7.43;;;4.75;;
19358;SDS011;9815;52.334;20.890;2022-08-19T11:34:37;12.02;;;4.68;;
19358;SDS011;9815;52.334;20.890;2022-08-19T11:37:06;9.50;;;4.88;;
19358;SDS011;9815;52.334;20.890;2022-08-19T11:39:35;6.53;;;4.50;;
19358;SDS011;9815;52.334;20.890;2022-08-19T11:42:05;11.25;;;4.90;;
19358;SDS011;9815;52.334;20.890;2022-08-19T11:44:48;17.33;;;4.55;;
19358;SDS011;9815;52.334;20.890;2022-08-19T11:47:17;9.07;;;4.50;;
19358;SDS011;9815;52.334;20.890;2022-08-19T11:49:46;10.07;;;4.85;;
19358;SDS011;9815;52.334;20.890;2022-08-19T11:52:16;11.07;;;4.82;;
19358;SDS011;9815;52.334;20.890;2022-08-19T11:54:44;8.15;;;4.43;;
19358;SDS011;9815;52.334;20.890;2022-08-19T11:57:13;8.80;;;4.57;;
19358;SDS011;9815;52.334;20.890;2022-08-19T11:59:47;11.32;;;4.53;;
19358;SDS011;9815;52.334;20.890;2022-08-19T12:02:17;7.03;;;4.47;;
19358;SDS011;9815;52.334;20.890;2022-08-19T12:04:45;7.63;;;4.53;;
19358;SDS011;9815;52.334;20.890;2022-08-19T12:07:13;8.20;;;4.53;;
19358;SDS011;9815;52.334;20.890;2022-08-19T12:09:43;8.90;;;4.70;;
19358;SDS011;9815;52.334;20.890;2022-08-19T12:12:14;11.48;;;4.90;;
19358;SDS011;9815;52.334;20.890;2022-08-19T12:14:42;7.38;;;4.57;;
19358;SDS011;9815;52.334;20.890;2022-08-19T12:17:12;7.50;;;4.43;;
19358;SDS011;9815;52.334;20.890;2022-08-19T12:19:41;8.95;;;4.25;;
19358;SDS011;9815;52.334;20.890;2022-08-19T12:22:09;7.78;;;4.47;;
19358;SDS011;9815;52.334;20.890;2022-08-19T12:24:39;6.50;;;4.55;;
19358;SDS011;9815;52.334;20.890;2022-08-19T12:27:07;11.43;;;4.93;;
19358;SDS011;9815;52.334;20.890;2022-08-19T12:29:38;10.95;;;4.50;;
19358;SDS011;9815;52.334;20.890;2022-08-19T12:32:07;7.00;;;4.18;;
19358;SDS011;9815;52.334;20.890;2022-08-19T12:34:37;8.50;;;4.50;;
19358;SDS011;9815;52.334;20.890;2022-08-19T12:37:07;9.63;;;4.72;;
19358;SDS011;9815;52.334;20.890;2022-08-19T12:39:39;7.43;;;4.40;;
19358;SDS011;9815;52.334;20.890;2022-08-19T12:42:10;9.32;;;4.50;;
19358;SDS011;9815;52.334;20.890;2022-08-19T12:44:39;7.00;;;4.60;;
19358;SDS011;9815;52.334;20.890;2022-08-19T12:47:10;8.60;;;4.47;;
19358;SDS011;9815;52.334;20.890;2022-08-19T12:49:41;9.27;;;4.63;;
19358;SDS011;9815;52.334;20.890;2022-08-19T12:52:21;9.73;;;4.75;;
19358;SDS011;9815;52.334;20.890;2022-08-19T12:54:53;13.48;;;4.53;;
19358;SDS011;9815;52.334;20.890;2022-08-19T12:57:23;11.90;;;4.75;;
19358;SDS011;9815;52.334;20.890;2022-08-19T12:59:59;12.13;;;4.30;;
19358;SDS011;9815;52.334;20.890;2022-08-19T13:02:31;10.77;;;4.40;;
19358;SDS011;9815;52.334;20.890;2022-08-19T13:05:05;9.95;;;3.90;;
19358;SDS011;9815;52.334;20.890;2022-08-19T13:07:36;8.85;;;4.90;;
19358;SDS011;9815;52.334;20.890;2022-08-19T13:10:07;10.82;;;4.60;;
19358;SDS011;9815;52.334;20.890;2022-08-19T13:12:40;9.30;;;4.53;;
19358;SDS011;9815;52.334;20.890;2022-08-19T13:15:10;6.38;;;4.53;;
19358;SDS011;9815;52.334;20.890;2022-08-19T13:17:43;8.95;;;4.70;;
19358;SDS011;9815;52.334;20.890;2022-08-19T13:20:13;10.90;;;4.35;;
19358;SDS011;9815;52.334;20.890;2022-08-19T13:22:42;10.98;;;4.30;;
19358;SDS011;9815;52.334;20.890;2022-08-19T13:25:13;10.52;;;4.70;;
19358;SDS011;9815;52.334;20.890;2022-08-19T13:27:43;8.25;;;4.80;;
19358;SDS011;9815;52.334;20.890;2022-08-19T13:30:13;9.60;;;4.72;;
19358;SDS011;9815;52.334;20.890;2022-08-19T13:33:00;12.68;;;4.50;;
19358;SDS011;9815;52.334;20.890;2022-08-19T13:35:43;9.57;;;4.53;;
19358;SDS011;9815;52.334;20.890;2022-08-19T13:38:13;8.80;;;4.32;;
19358;SDS011;9815;52.334;20.890;2022-08-19T13:40:44;10.52;;;3.85;;
19358;SDS011;9815;52.334;20.890;2022-08-19T13:43:13;9.63;;;4.68;;
19358;SDS011;9815;52.334;20.890;2022-08-19T13:45:48;7.32;;;4.07;;
19358;SDS011;9815;52.334;20.890;2022-08-19T13:48:23;12.93;;;4.47;;
19358;SDS011;9815;52.334;20.890;2022-08-19T13:50:52;10.27;;;4.43;;
19358;SDS011;9815;52.334;20.890;2022-08-19T13:53:22;9.13;;;4.65;;
19358;SDS011;9815;52.334;20.890;2022-08-19T13:55:52;8.48;;;4.40;;
19358;SDS011;9815;52.334;20.890;2022-08-19T13:58:20;11.25;;;4.82;;
19358;SDS011;9815;52.334;20.890;2022-08-19T14:00:49;6.72;;;4.40;;
19358;SDS011;9815;52.334;20.890;2022-08-19T14:03:18;9.95;;;4.50;;
19358;SDS011;9815;52.334;20.890;2022-08-19T14:05:46;9.38;;;4.90;;
19358;SDS011;9815;52.334;20.890;2022-08-19T14:08:14;6.78;;;4.40;;
19358;SDS011;9815;52.334;20.890;2022-08-19T14:10:43;9.45;;;4.68;;
19358;SDS011;9815;52.334;20.890;2022-08-19T14:13:14;7.50;;;4.40;;
19358;SDS011;9815;52.334;20.890;2022-08-19T14:15:44;7.47;;;4.28;;
19358;SDS011;9815;52.334;20.890;2022-08-19T14:18:13;8.80;;;4.55;;
19358;SDS011;9815;52.334;20.890;2022-08-19T14:20:43;11.15;;;4.68;;
19358;SDS011;9815;52.334;20.890;2022-08-19T14:23:11;6.63;;;4.43;;
19358;SDS011;9815;52.334;20.890;2022-08-19T14:25:40;7.35;;;4.30;;
19358;SDS011;9815;52.334;20.890;2022-08-19T14:28:08;12.65;;;4.63;;
19358;SDS011;9815;52.334;20.890;2022-08-19T14:30:38;10.35;;;5.00;;
19358;SDS011;9815;52.334;20.890;2022-08-19T14:33:06;8.10;;;4.65;;
19358;SDS011;9815;52.334;20.890;2022-08-19T14:35:36;10.63;;;4.15;;
19358;SDS011;9815;52.334;20.890;2022-08-19T14:38:04;9.10;;;4.18;;
19358;SDS011;9815;52.334;20.890;2022-08-19T14:40:34;9.98;;;4.28;;
19358;SDS011;9815;52.334;20.890;2022-08-19T14:43:03;9.88;;;4.07;;
19358;SDS011;9815;52.334;20.890;2022-08-19T14:45:34;5.50;;;3.78;;
19358;SDS011;9815;52.334;20.890;2022-08-19T14:48:08;10.35;;;3.95;;
19358;SDS011;9815;52.334;20.890;2022-08-19T14:50:44;10.80;;;4.20;;
19358;SDS011;9815;52.334;20.890;2022-08-19T14:53:13;6.65;;;4.32;;
19358;SDS011;9815;52.334;20.890;2022-08-19T14:55:43;11.43;;;4.45;;
19358;SDS011;9815;52.334;20.890;2022-08-19T14:58:13;8.20;;;4.07;;
19358;SDS011;9815;52.334;20.890;2022-08-19T15:00:56;9.02;;;3.80;;
19358;SDS011;9815;52.334;20.890;2022-08-19T15:03:28;9.25;;;4.75;;